Map

Track Data

SID SEASON NUMBER BASIN SUBBASIN NAME ISO_TIME NATURE LAT LON WMO_WIND WMO_PRES WMO_AGENCY TRACK_TYPE DIST2LAND LANDFALL IFLAG USA_AGENCY USA_ATCF_ID USA_LAT USA_LON USA_RECORD USA_STATUS USA_WIND USA_PRES USA_SSHS USA_R34_NE USA_R34_SE USA_R34_SW USA_R34_NW USA_R50_NE USA_R50_SE USA_R50_SW USA_R50_NW USA_R64_NE USA_R64_SE USA_R64_SW USA_R64_NW USA_POCI USA_ROCI USA_RMW USA_EYE TOKYO_LAT TOKYO_LON TOKYO_GRADE TOKYO_WIND TOKYO_PRES TOKYO_R50_DIR TOKYO_R50_LONG TOKYO_R50_SHORT TOKYO_R30_DIR TOKYO_R30_LONG TOKYO_R30_SHORT TOKYO_LAND CMA_LAT CMA_LON CMA_CAT CMA_WIND CMA_PRES HKO_LAT HKO_LON HKO_CAT HKO_WIND HKO_PRES NEWDELHI_LAT NEWDELHI_LON NEWDELHI_GRADE NEWDELHI_WIND NEWDELHI_PRES NEWDELHI_CI NEWDELHI_DP NEWDELHI_POCI REUNION_LAT REUNION_LON REUNION_TYPE REUNION_WIND REUNION_PRES REUNION_TNUM REUNION_CI REUNION_RMW REUNION_R34_NE REUNION_R34_SE REUNION_R34_SW REUNION_R34_NW REUNION_R50_NE REUNION_R50_SE REUNION_R50_SW REUNION_R50_NW REUNION_R64_NE REUNION_R64_SE REUNION_R64_SW REUNION_R64_NW BOM_LAT BOM_LON BOM_TYPE BOM_WIND BOM_PRES BOM_TNUM BOM_CI BOM_RMW BOM_R34_NE BOM_R34_SE BOM_R34_SW BOM_R34_NW BOM_R50_NE BOM_R50_SE BOM_R50_SW BOM_R50_NW BOM_R64_NE BOM_R64_SE BOM_R64_SW BOM_R64_NW BOM_ROCI BOM_POCI BOM_EYE BOM_POS_METHOD BOM_PRES_METHOD NADI_LAT NADI_LON NADI_CAT NADI_WIND NADI_PRES WELLINGTON_LAT WELLINGTON_LON WELLINGTON_WIND WELLINGTON_PRES DS824_LAT DS824_LON DS824_STAGE DS824_WIND DS824_PRES TD9636_LAT TD9636_LON TD9636_STAGE TD9636_WIND TD9636_PRES TD9635_LAT TD9635_LON TD9635_WIND TD9635_PRES TD9635_ROCI NEUMANN_LAT NEUMANN_LON NEUMANN_CLASS NEUMANN_WIND NEUMANN_PRES MLC_LAT MLC_LON MLC_CLASS MLC_WIND MLC_PRES USA_GUST BOM_GUST BOM_GUST_PER REUNION_GUST REUNION_GUST_PER USA_SEAHGT USA_SEARAD_NE USA_SEARAD_SE USA_SEARAD_SW USA_SEARAD_NW STORM_SPEED STORM_DIR
1926011S11061 1926 1 SI MM NOT_NAMED 1926-01-11 00:00:00 TS -11.0000 60.7000 main 1067 1047 _________O____ -1 -11.0000 60.7000 TC 25 7 256
1926011S11061 1926 1 SI MM NOT_NAMED 1926-01-11 03:00:00 TS -11.0876 60.3450 main 1045 1026 _________P____ -1 -11.0876 60.3450 TC 25 7 254
1926011S11061 1926 1 SI MM NOT_NAMED 1926-01-11 06:00:00 TS -11.2000 60.0000 main 1026 1007 _________O____ -1 -11.2000 60.0000 TC 25 7 248
1926011S11061 1926 1 SI MM NOT_NAMED 1926-01-11 09:00:00 TS -11.3500 59.6775 main 1007 979 _________P____ -1 -11.3500 59.6775 TC 25 7 243
1926011S11061 1926 1 SI MM NOT_NAMED 1926-01-11 12:00:00 TS -11.5000 59.4000 main 979 964 _________O____ -1 -11.5000 59.4000 TC 25 6 243
1926011S11061 1926 1 SI MM NOT_NAMED 1926-01-11 15:00:00 TS -11.6000 59.1774 main 964 950 _________P____ -1 -11.6000 59.1774 TC 25 4 243
1926011S11061 1926 1 SI MM NOT_NAMED 1926-01-11 18:00:00 TS -11.7000 59.0000 main 950 937 _________O____ -1 -11.7000 59.0000 TC 25 4 232
1926011S11061 1926 1 SI MM NOT_NAMED 1926-01-11 21:00:00 TS -11.8349 58.8724 main 937 912 _________P____ -1 -11.8349 58.8724 TC 25 4 224
1926011S11061 1926 1 SI MM NOT_NAMED 1926-01-12 00:00:00 TS -12.0000 58.7000 main 912 887 _________O____ -1 -12.0000 58.7000 TC 25 6 234
1926011S11061 1926 1 SI MM NOT_NAMED 1926-01-12 03:00:00 TS -12.1850 58.3800 main 887 862 _________P____ -1 -12.1850 58.3800 TC 25 8 240
1926011S11061 1926 1 SI MM NOT_NAMED 1926-01-12 06:00:00 TS -12.4000 58.0000 main 862 830 _________O____ -1 -12.4000 58.0000 TC 25 9 237
1926011S11061 1926 1 SI MM NOT_NAMED 1926-01-12 09:00:00 TS -12.6575 57.6351 main 816 777 _________P____ -1 -12.6575 57.6351 TC 25 8 234
1926011S11061 1926 1 SI MM NOT_NAMED 1926-01-12 12:00:00 TS -12.9000 57.3000 main 777 743 _________O____ -1 -12.9000 57.3000 TC 25 7 236
1926011S11061 1926 1 SI MM NOT_NAMED 1926-01-12 15:00:00 TS -13.0574 57.0349 main 739 715 _________P____ -1 -13.0574 57.0349 TC 25 6 238
1926011S11061 1926 1 SI MM NOT_NAMED 1926-01-12 18:00:00 TS -13.2000 56.8000 main 715 687 _________O____ -1 -13.2000 56.8000 TC 25 6 234
1926011S11061 1926 1 SI MM NOT_NAMED 1926-01-12 21:00:00 TS -13.4000 56.5500 main 687 650 _________P____ -1 -13.4000 56.5500 TC 25 6 231
1926011S11061 1926 1 SI MM NOT_NAMED 1926-01-13 00:00:00 TS -13.6000 56.3000 main 650 626 _________O____ -1 -13.6000 56.3000 TC 25 6 235
1926011S11061 1926 1 SI MM NOT_NAMED 1926-01-13 03:00:00 TS -13.7500 56.0424 main 615 588 _________P____ -1 -13.7500 56.0424 TC 25 6 238
1926011S11061 1926 1 SI MM NOT_NAMED 1926-01-13 06:00:00 TS -13.9000 55.8000 main 588 562 _________O____ -1 -13.9000 55.8000 TC 25 6 231
1926011S11061 1926 1 SI MM NOT_NAMED 1926-01-13 09:00:00 TS -14.1000 55.5925 main 562 536 _________P____ -1 -14.1000 55.5925 TC 25 6 224
1926011S11061 1926 1 SI MM NOT_NAMED 1926-01-13 12:00:00 TS -14.3000 55.4000 main 536 513 _________O____ -1 -14.3000 55.4000 TC 25 5 227
1926011S11061 1926 1 SI MM NOT_NAMED 1926-01-13 15:00:00 TS -14.4500 55.1999 main 513 488 _________P____ -1 -14.4500 55.1999 TC 25 5 232
1926011S11061 1926 1 SI MM NOT_NAMED 1926-01-13 18:00:00 TS -14.6000 55.0000 main 488 464 _________O____ -1 -14.6000 55.0000 TC 25 5 229
1926011S11061 1926 1 SI MM NOT_NAMED 1926-01-13 21:00:00 TS -14.7775 54.8074 main 464 440 _________P____ -1 -14.7775 54.8074 TC 25 6 224
1926011S11061 1926 1 SI MM NOT_NAMED 1926-01-14 00:00:00 TS -15.0000 54.6000 main 440 418 _________O____ -1 -15.0000 54.6000 TC 25 7 221
1926011S11061 1926 1 SI MM NOT_NAMED 1926-01-14 03:00:00 TS -15.2775 54.3575 main 418 386 _________P____ -1 -15.2775 54.3575 TC 25 8 219
1926011S11061 1926 1 SI MM NOT_NAMED 1926-01-14 06:00:00 TS -15.6000 54.1000 main 386 367 _________O____ -1 -15.6000 54.1000 TC 25 8 217
1926011S11061 1926 1 SI MM NOT_NAMED 1926-01-14 09:00:00 TS -15.9350 53.8425 main 357 343 _________P____ -1 -15.9350 53.8425 TC 25 9 215
1926011S11061 1926 1 SI MM NOT_NAMED 1926-01-14 12:00:00 TS -16.3000 53.6000 main 346 337 _________O____ -1 -16.3000 53.6000 TC 25 9 211
1926011S11061 1926 1 SI MM NOT_NAMED 1926-01-14 15:00:00 TS -16.6850 53.3775 main 342 337 _________P____ -1 -16.6850 53.3775 TC 25 9 206
1926011S11061 1926 1 SI MM NOT_NAMED 1926-01-14 18:00:00 TS -17.1000 53.2000 main 341 341 _________O____ -1 -17.1000 53.2000 TC 25 9 198
1926011S11061 1926 1 SI MM NOT_NAMED 1926-01-14 21:00:00 TS -17.5575 53.0774 main 356 353 _________P____ -1 -17.5575 53.0774 TC 25 9 192
1926011S11061 1926 1 SI MM NOT_NAMED 1926-01-15 00:00:00 TS -18.0000 53.0000 main 365 365 _________O____ -1 -18.0000 53.0000 TC 25 8 190
1926011S11061 1926 1 SI MM NOT_NAMED 1926-01-15 03:00:00 TS -18.3725 52.9275 main 367 359 _________P____ -1 -18.3725 52.9275 TC 25 7 188
1926011S11061 1926 1 SI MM NOT_NAMED 1926-01-15 06:00:00 TS -18.7000 52.9000 main 359 335 _________O____ -1 -18.7000 52.9000 TC 25 6 182
1926011S11061 1926 1 SI MM NOT_NAMED 1926-01-15 09:00:00 TS -19.0075 52.9275 main 335 305 _________P____ -1 -19.0075 52.9275 TC 25 6 171
1926011S11061 1926 1 SI MM NOT_NAMED 1926-01-15 12:00:00 TS -19.3000 53.0000 main 305 275 _________O____ -1 -19.3000 53.0000 TC 25 6 166
1926011S11061 1926 1 SI MM NOT_NAMED 1926-01-15 15:00:00 TS -19.6000 53.0850 main 275 247 _________P____ -1 -19.6000 53.0850 TC 25 6 162
1926011S11061 1926 1 SI MM NOT_NAMED 1926-01-15 18:00:00 TS -19.9000 53.2000 main 247 221 _________O____ -1 -19.9000 53.2000 TC 25 7 159
1926011S11061 1926 1 SI MM NOT_NAMED 1926-01-15 21:00:00 TS -20.2075 53.3350 main 221 188 _________P____ -1 -20.2075 53.3350 TC 25 7 155
1926011S11061 1926 1 SI MM NOT_NAMED 1926-01-16 00:00:00 TS -20.5000 53.5000 main 188 162 _________O____ -1 -20.5000 53.5000 TC 25 6 149
1926011S11061 1926 1 SI MM NOT_NAMED 1926-01-16 03:00:00 TS -20.7575 53.6851 main 159 135 _________P____ -1 -20.7575 53.6851 TC 25 6 143
1926011S11061 1926 1 SI MM NOT_NAMED 1926-01-16 06:00:00 TS -21.0000 53.9000 main 135 114 _________O____ -1 -21.0000 53.9000 TC 25 7 139
1926011S11061 1926 1 SI MM NOT_NAMED 1926-01-16 09:00:00 TS -21.2650 54.1499 main 116 94 _________P____ -1 -21.2650 54.1499 TC 25 7 137
1926011S11061 1926 1 SI MM NOT_NAMED 1926-01-16 12:00:00 TS -21.5000 54.4000 main 94 79 _________O____ -1 -21.5000 54.4000 TC 25 6 132
1926011S11061 1926 1 SI MM NOT_NAMED 1926-01-16 15:00:00 TS -21.6575 54.6151 main 85 76 _________P____ -1 -21.6575 54.6151 TC 25 5 129
1926011S11061 1926 1 SI MM NOT_NAMED 1926-01-16 18:00:00 TS -21.8000 54.8000 main 76 76 _________O____ -1 -21.8000 54.8000 TC 25 4 137
1926011S11061 1926 1 SI MM NOT_NAMED 1926-01-16 21:00:00 TS -21.9849 54.9426 main 88 84 _________P____ -1 -21.9849 54.9426 TC 25 5 145
1926011S11061 1926 1 SI MM NOT_NAMED 1926-01-17 00:00:00 TS -22.2000 55.1000 main 102 102 _________O____ -1 -22.2000 55.1000 TC 25 6 142
1926011S11061 1926 1 SI MM NOT_NAMED 1926-01-17 03:00:00 TS -22.4425 55.3350 main 116 116 _________P____ -1 -22.4425 55.3350 TC 25 7 137
1926011S11061 1926 1 SI MM NOT_NAMED 1926-01-17 06:00:00 TS -22.7000 55.6000 main 145 145 _________O____ -1 -22.7000 55.6000 TC 25 7 137
1926011S11061 1926 1 SI MM NOT_NAMED 1926-01-17 09:00:00 TS -22.9424 55.8427 main 168 168 _________P____ -1 -22.9424 55.8427 TC 25 7 137
1926011S11061 1926 1 SI MM NOT_NAMED 1926-01-17 12:00:00 TS -23.2000 56.1000 main 207 207 _________O____ -1 -23.2000 56.1000 TC 25 8 137
1926011S11061 1926 1 SI MM NOT_NAMED 1926-01-17 15:00:00 TS -23.5076 56.4074 main 248 248 _________P____ -1 -23.5076 56.4074 TC 25 8 138
1926011S11061 1926 1 SI MM NOT_NAMED 1926-01-17 18:00:00 TS -23.8000 56.7000 main 291 291 _________O____ -1 -23.8000 56.7000 TC 25 7 138
1926011S11061 1926 1 SI MM NOT_NAMED 1926-01-17 21:00:00 TS -24.0225 56.9226 main 319 319 _________P____ -1 -24.0225 56.9226 TC 25 5 138
1926011S11061 1926 1 SI MM NOT_NAMED 1926-01-18 00:00:00 TS -24.2000 57.1000 main 348 _________O____ -1 -24.2000 57.1000 TC 25 5 138

About IBTrACS Database

This database is a web-friendly format of International Best Track Archive for Climate Stewardship (IBTrACS), a global best track data archive curated by NOAA dating back to 1842.

Updated: 2021-10-21